Time;durP1;ratioP1;P1;durP2;ratioP2;P2;SDS_P1;SDS_P2;PMS_P1;PMS_P2;Temp;Humidity;BMP_temperature;BMP_pressure;BME280_temperature;BME280_humidity;BME280_pressure;Samples;Min_cycle;Max_cycle;Signal;HPM_P1;HPM_P2
2023/01/29 00:01:03;;;;;;;17.30;11.13;;;;;;;;;;5036632;28;20045;-68
2023/01/29 00:03:29;;;;;;;19.65;11.40;;;;;;;;;;5038180;28;20049;-68
2023/01/29 00:05:56;;;;;;;19.60;11.93;;;;;;;;;;5034494;28;20096;-68
2023/01/29 00:08:22;;;;;;;16.23;11.23;;;;;;;;;;5037111;28;20037;-68
2023/01/29 00:10:48;;;;;;;18.08;11.55;;;;;;;;;;5038787;28;20048;-68
2023/01/29 00:13:14;;;;;;;18.90;12.18;;;;;;;;;;5035215;28;20386;-68
2023/01/29 00:15:40;;;;;;;16.73;11.85;;;;;;;;;;5036407;28;20152;-68
2023/01/29 00:18:07;;;;;;;21.45;12.63;;;;;;;;;;5035550;28;21971;-68
2023/01/29 00:20:33;;;;;;;17.77;12.43;;;;;;;;;;5048324;28;20052;-68
2023/01/29 00:22:59;;;;;;;24.90;13.43;;;;;;;;;;5034847;28;20041;-68
2023/01/29 00:25:25;;;;;;;19.58;13.40;;;;;;;;;;5036290;28;20045;-68
2023/01/29 00:27:52;;;;;;;20.65;13.70;;;;;;;;;;5037340;28;20064;-68
2023/01/29 00:30:18;;;;;;;26.45;14.25;;;;;;;;;;5039438;28;20075;-68
2023/01/29 00:32:45;;;;;;;24.67;13.73;;;;;;;;;;5034268;28;20049;-68
2023/01/29 00:35:11;;;;;;;24.05;13.52;;;;;;;;;;5038297;28;20033;-67
2023/01/29 00:37:38;;;;;;;25.63;13.23;;;;;;;;;;5036329;28;20101;-67
2023/01/29 00:40:04;;;;;;;21.38;12.25;;;;;;;;;;5032955;28;20060;-68
2023/01/29 00:45:15;;;;;;;18.90;12.73;;;;;;;;;;5036057;28;20045;-68
2023/01/29 00:47:41;;;;;;;18.95;11.52;;;;;;;;;;5039860;28;20044;-68
2023/01/29 00:50:10;;;;;;;18.60;11.57;;;;;;;;;;5034083;28;20041;-68
2023/01/29 00:52:36;;;;;;;19.25;11.48;;;;;;;;;;5033542;28;20494;-69
2023/01/29 00:55:03;;;;;;;20.15;11.32;;;;;;;;;;5037838;28;20168;-68
2023/01/29 00:57:30;;;;;;;17.30;11.00;;;;;;;;;;5034856;28;20079;-68
2023/01/29 00:59:56;;;;;;;18.52;10.43;;;;;;;;;;5037490;28;20458;-68
2023/01/29 01:05:12;;;;;;;14.77;10.13;;;;;;;;;;5014846;28;20801;-68
2023/01/29 01:07:40;;;;;;;14.57;10.10;;;;;;;;;;5035514;28;20045;-68
2023/01/29 01:10:19;;;;;;;18.60;11.20;;;;;;;;;;5036554;28;20496;-68
2023/01/29 01:12:45;;;;;;;18.42;9.77;;;;;;;;;;5020668;28;20057;-68
2023/01/29 01:15:12;;;;;;;14.88;9.60;;;;;;;;;;5019518;28;20497;-68
2023/01/29 01:17:38;;;;;;;18.90;11.15;;;;;;;;;;5018858;28;20048;-68
2023/01/29 01:20:04;;;;;;;16.20;10.20;;;;;;;;;;5030425;28;20139;-68
2023/01/29 01:22:31;;;;;;;15.38;10.55;;;;;;;;;;5033887;28;20127;-68
2023/01/29 01:24:57;;;;;;;17.25;10.23;;;;;;;;;;5034318;28;20040;-68
2023/01/29 01:27:24;;;;;;;16.10;10.80;;;;;;;;;;5035065;28;20048;-68
2023/01/29 01:29:50;;;;;;;18.77;10.95;;;;;;;;;;5035323;28;20053;-68
2023/01/29 01:32:17;;;;;;;21.05;10.70;;;;;;;;;;5032773;28;20708;-68
2023/01/29 01:34:44;;;;;;;19.25;12.10;;;;;;;;;;5037001;28;20128;-68
2023/01/29 01:37:11;;;;;;;20.88;12.43;;;;;;;;;;5037082;28;20431;-68
2023/01/29 01:39:37;;;;;;;22.88;12.60;;;;;;;;;;5036992;28;20032;-68
2023/01/29 01:42:03;;;;;;;21.88;12.73;;;;;;;;;;5033814;28;20049;-68
2023/01/29 01:44:50;;;;;;;21.33;12.75;;;;;;;;;;5033864;28;20159;-68
2023/01/29 01:47:19;;;;;;;23.73;13.43;;;;;;;;;;5037250;28;20045;-68
2023/01/29 01:49:46;;;;;;;21.40;13.43;;;;;;;;;;5037891;28;20106;-68
2023/01/29 01:52:13;;;;;;;21.67;14.13;;;;;;;;;;5034811;28;20044;-68
2023/01/29 01:54:39;;;;;;;25.23;14.55;;;;;;;;;;5031661;28;20086;-68
2023/01/29 01:57:14;;;;;;;26.50;12.93;;;;;;;;;;5035274;28;21743;-69
2023/01/29 01:59:42;;;;;;;25.65;14.32;;;;;;;;;;5033061;28;20049;-69
2023/01/29 02:10:27;;;;;;;25.40;15.90;;;;;;;;;;5029088;28;20135;-69
2023/01/29 02:12:53;;;;;;;31.17;17.63;;;;;;;;;;5035714;28;20163;-69
2023/01/29 02:15:19;;;;;;;28.77;18.33;;;;;;;;;;5034776;28;20060;-69
2023/01/29 02:17:47;;;;;;;32.08;16.98;;;;;;;;;;5037482;28;20687;-69
2023/01/29 02:20:25;;;;;;;28.27;18.08;;;;;;;;;;5035963;28;20397;-69
2023/01/29 02:22:59;;;;;;;33.00;19.40;;;;;;;;;;5037534;28;20048;-69
2023/01/29 02:25:42;;;;;;;26.33;17.83;;;;;;;;;;5036468;28;20053;-69
2023/01/29 02:28:15;;;;;;;33.88;19.00;;;;;;;;;;5033601;28;20041;-68
2023/01/29 02:30:47;;;;;;;31.20;19.50;;;;;;;;;;5050152;28;20108;-67
2023/01/29 02:33:22;;;;;;;32.65;20.15;;;;;;;;;;5043372;28;20063;-67
2023/01/29 02:35:55;;;;;;;36.55;20.15;;;;;;;;;;5033288;28;20109;-68
2023/01/29 02:38:28;;;;;;;34.08;20.20;;;;;;;;;;5034096;28;20122;-68
2023/01/29 02:41:01;;;;;;;36.10;21.25;;;;;;;;;;5034324;28;20500;-67
2023/01/29 02:43:27;;;;;;;37.60;21.10;;;;;;;;;;5034660;28;20057;-68
2023/01/29 02:46:00;;;;;;;37.88;21.15;;;;;;;;;;5035630;28;20052;-69
2023/01/29 02:48:29;;;;;;;37.40;20.58;;;;;;;;;;5034830;28;20140;-69
2023/01/29 02:50:58;;;;;;;39.85;21.33;;;;;;;;;;5036390;28;20485;-69
2023/01/29 02:53:29;;;;;;;37.60;21.15;;;;;;;;;;5034206;28;20060;-69
2023/01/29 02:55:58;;;;;;;36.92;21.48;;;;;;;;;;5032497;28;20048;-68
2023/01/29 02:58:38;;;;;;;35.45;21.00;;;;;;;;;;5035558;28;20389;-69
2023/01/29 03:01:07;;;;;;;35.97;21.45;;;;;;;;;;5033732;28;20102;-69
2023/01/29 03:03:36;;;;;;;38.25;22.05;;;;;;;;;;5036613;28;20057;-68
2023/01/29 03:06:10;;;;;;;33.38;21.02;;;;;;;;;;5035690;28;20499;-68
2023/01/29 03:08:44;;;;;;;35.13;21.27;;;;;;;;;;5035678;28;20116;-69
2023/01/29 03:11:13;;;;;;;35.30;20.38;;;;;;;;;;5033284;28;20053;-69
2023/01/29 03:13:50;;;;;;;32.40;20.33;;;;;;;;;;5037359;28;20409;-69
2023/01/29 03:16:22;;;;;;;33.13;20.83;;;;;;;;;;5035786;28;20525;-68
2023/01/29 03:18:53;;;;;;;29.90;18.45;;;;;;;;;;5035823;28;21656;-69
2023/01/29 03:32:27;;;;;;;35.20;21.63;;;;;;;;;;5046555;28;20079;-69
2023/01/29 03:34:56;;;;;;;39.63;22.63;;;;;;;;;;5041976;28;20115;-69
2023/01/29 03:37:29;;;;;;;34.22;21.50;;;;;;;;;;5037959;28;20077;-69
2023/01/29 03:39:55;;;;;;;35.42;22.60;;;;;;;;;;5047013;28;20059;-69
2023/01/29 03:42:26;;;;;;;38.30;23.55;;;;;;;;;;5041969;28;20058;-69
2023/01/29 03:44:56;;;;;;;38.10;22.08;;;;;;;;;;5038910;28;20103;-69
2023/01/29 03:47:39;;;;;;;35.75;22.13;;;;;;;;;;5039752;28;20088;-69
2023/01/29 03:50:05;;;;;;;37.55;21.88;;;;;;;;;;5040736;28;20056;-69
2023/01/29 03:52:37;;;;;;;34.63;22.70;;;;;;;;;;5035372;28;20119;-69
2023/01/29 03:55:16;;;;;;;39.67;24.17;;;;;;;;;;5036569;28;20098;-69
2023/01/29 03:57:58;;;;;;;34.30;23.70;;;;;;;;;;5038684;28;20044;-69
2023/01/29 04:00:33;;;;;;;42.80;24.67;;;;;;;;;;5036335;28;20049;-69
2023/01/29 04:03:06;;;;;;;42.78;24.45;;;;;;;;;;5035476;28;20100;-69
2023/01/29 04:05:36;;;;;;;38.55;24.85;;;;;;;;;;5036636;28;20045;-69
2023/01/29 04:08:06;;;;;;;37.60;24.40;;;;;;;;;;5036702;28;20126;-69
2023/01/29 04:10:34;;;;;;;37.22;23.85;;;;;;;;;;5035608;28;20409;-69
2023/01/29 04:13:04;;;;;;;39.13;23.90;;;;;;;;;;5037349;28;20568;-69
2023/01/29 04:15:32;;;;;;;37.53;23.65;;;;;;;;;;5037142;28;20099;-69
2023/01/29 04:17:58;;;;;;;33.97;23.25;;;;;;;;;;5037792;28;20152;-69
2023/01/29 04:20:25;;;;;;;33.03;22.88;;;;;;;;;;5036533;28;20045;-69
2023/01/29 04:22:52;;;;;;;32.42;22.50;;;;;;;;;;5037036;28;20041;-69
2023/01/29 04:25:25;;;;;;;33.50;22.27;;;;;;;;;;5053491;28;20397;-69
2023/01/29 04:27:57;;;;;;;33.80;20.90;;;;;;;;;;5031791;28;20373;-69
2023/01/29 04:30:23;;;;;;;31.00;20.17;;;;;;;;;;5040688;28;20052;-69
2023/01/29 04:32:50;;;;;;;32.70;20.40;;;;;;;;;;5047135;28;20052;-69
2023/01/29 04:35:23;;;;;;;28.55;20.17;;;;;;;;;;5032677;28;20060;-69
2023/01/29 04:37:54;;;;;;;33.20;21.77;;;;;;;;;;5035669;28;20441;-69
2023/01/29 04:40:26;;;;;;;29.27;20.25;;;;;;;;;;5034655;28;20094;-69
2023/01/29 04:42:58;;;;;;;35.35;20.45;;;;;;;;;;5034508;28;20408;-69
2023/01/29 04:45:26;;;;;;;31.63;20.50;;;;;;;;;;5036507;28;20088;-69
2023/01/29 04:47:57;;;;;;;26.48;19.38;;;;;;;;;;5033220;28;20114;-69
2023/01/29 04:50:28;;;;;;;32.10;21.33;;;;;;;;;;5037415;28;20047;-69
2023/01/29 04:53:00;;;;;;;30.15;20.40;;;;;;;;;;5037089;28;20048;-69
2023/01/29 04:55:41;;;;;;;28.42;19.80;;;;;;;;;;5036091;28;20045;-70
2023/01/29 04:58:11;;;;;;;29.45;19.40;;;;;;;;;;5037117;28;20045;-69
2023/01/29 05:00:40;;;;;;;32.00;20.48;;;;;;;;;;5037878;28;20049;-69
2023/01/29 05:03:08;;;;;;;28.95;20.40;;;;;;;;;;5034031;28;20136;-69
2023/01/29 05:05:35;;;;;;;27.95;19.85;;;;;;;;;;5035533;28;20341;-69
2023/01/29 05:08:02;;;;;;;33.65;20.70;;;;;;;;;;5039552;28;20068;-69
2023/01/29 05:10:28;;;;;;;32.35;21.13;;;;;;;;;;5035339;28;20127;-69
2023/01/29 05:12:58;;;;;;;31.17;20.80;;;;;;;;;;5035655;28;20576;-69
2023/01/29 05:15:28;;;;;;;33.85;20.55;;;;;;;;;;5039074;28;20098;-69
2023/01/29 05:18:00;;;;;;;25.98;17.80;;;;;;;;;;5037716;28;20045;-69
2023/01/29 05:20:27;;;;;;;27.17;19.08;;;;;;;;;;5037110;28;20055;-69
2023/01/29 05:22:53;;;;;;;26.45;18.23;;;;;;;;;;5036013;28;20516;-69
2023/01/29 05:25:21;;;;;;;28.83;17.67;;;;;;;;;;5038768;28;20497;-69
2023/01/29 05:30:34;;;;;;;27.60;17.42;;;;;;;;;;5037238;28;20053;-69
2023/01/29 05:33:01;;;;;;;26.70;17.23;;;;;;;;;;5047033;28;20052;-69
2023/01/29 05:35:27;;;;;;;23.73;18.20;;;;;;;;;;5033638;28;20032;-69
2023/01/29 05:37:55;;;;;;;23.35;16.80;;;;;;;;;;5036555;28;20043;-69
2023/01/29 05:40:21;;;;;;;26.48;17.45;;;;;;;;;;5034881;28;20488;-69
2023/01/29 05:42:47;;;;;;;25.63;17.98;;;;;;;;;;5036115;28;20425;-69
2023/01/29 05:45:14;;;;;;;28.52;18.70;;;;;;;;;;5033750;28;20058;-69
2023/01/29 05:47:40;;;;;;;35.65;20.35;;;;;;;;;;5034792;28;20087;-69
2023/01/29 05:50:06;;;;;;;37.92;23.15;;;;;;;;;;5033051;28;20049;-69
2023/01/29 05:52:32;;;;;;;39.55;23.75;;;;;;;;;;5035258;28;20057;-68
2023/01/29 05:54:59;;;;;;;43.17;24.67;;;;;;;;;;5036296;28;21363;-68
2023/01/29 05:57:25;;;;;;;33.67;23.33;;;;;;;;;;5036266;28;20041;-68
2023/01/29 05:59:51;;;;;;;34.85;22.73;;;;;;;;;;5039033;28;20055;-68
2023/01/29 06:02:33;;;;;;;33.47;23.08;;;;;;;;;;5034878;28;20039;-68
2023/01/29 06:04:59;;;;;;;35.88;24.27;;;;;;;;;;5034950;28;20049;-68
2023/01/29 06:07:25;;;;;;;34.08;24.30;;;;;;;;;;5033266;28;20045;-68
2023/01/29 06:09:51;;;;;;;37.42;24.13;;;;;;;;;;5036370;28;20032;-69
2023/01/29 06:12:17;;;;;;;37.85;23.80;;;;;;;;;;5034248;28;20041;-69
2023/01/29 06:14:43;;;;;;;37.83;23.85;;;;;;;;;;5035282;28;20756;-69
2023/01/29 06:17:10;;;;;;;35.38;24.17;;;;;;;;;;5032376;28;20443;-69
2023/01/29 06:19:36;;;;;;;30.02;21.77;;;;;;;;;;5034345;28;20520;-69
2023/01/29 06:22:02;;;;;;;44.95;24.25;;;;;;;;;;5034302;28;20864;-69
2023/01/29 06:24:28;;;;;;;38.42;24.02;;;;;;;;;;5036771;28;20845;-69
2023/01/29 06:26:54;;;;;;;41.63;25.70;;;;;;;;;;5033277;28;20137;-68
2023/01/29 06:29:20;;;;;;;46.90;26.95;;;;;;;;;;5038110;28;20037;-69
2023/01/29 06:31:47;;;;;;;45.05;27.42;;;;;;;;;;5038047;28;20457;-69
2023/01/29 06:34:13;;;;;;;48.03;28.13;;;;;;;;;;5035781;28;20382;-69
2023/01/29 06:36:40;;;;;;;51.22;30.52;;;;;;;;;;5039221;28;20077;-68
2023/01/29 06:39:06;;;;;;;46.70;27.63;;;;;;;;;;5037542;28;20212;-69
2023/01/29 06:41:33;;;;;;;55.35;29.40;;;;;;;;;;5036471;28;20067;-69
2023/01/29 06:43:59;;;;;;;48.90;30.02;;;;;;;;;;5023662;28;20053;-69
2023/01/29 06:46:25;;;;;;;55.63;30.27;;;;;;;;;;5016189;28;20053;-68
2023/01/29 06:48:51;;;;;;;56.55;32.00;;;;;;;;;;5015287;28;20132;-69
2023/01/29 06:51:17;;;;;;;54.97;31.25;;;;;;;;;;5022139;28;20040;-69
2023/01/29 06:53:43;;;;;;;53.53;31.50;;;;;;;;;;5021859;28;20047;-68
2023/01/29 06:56:10;;;;;;;51.00;30.10;;;;;;;;;;5016527;28;20045;-68
2023/01/29 06:58:37;;;;;;;60.53;32.30;;;;;;;;;;5016123;28;20041;-68
2023/01/29 07:01:05;;;;;;;54.90;31.58;;;;;;;;;;5016047;28;20124;-69
2023/01/29 07:03:31;;;;;;;58.05;31.67;;;;;;;;;;5027105;28;20042;-69
2023/01/29 07:05:58;;;;;;;55.70;31.70;;;;;;;;;;4997637;28;20045;-69
2023/01/29 07:08:24;;;;;;;53.20;31.15;;;;;;;;;;5025223;28;20053;-68
2023/01/29 07:10:50;;;;;;;54.83;30.92;;;;;;;;;;5003059;28;20055;-68
2023/01/29 07:13:16;;;;;;;55.80;31.60;;;;;;;;;;5025564;28;20049;-68
2023/01/29 07:15:43;;;;;;;51.67;30.15;;;;;;;;;;5010912;28;21650;-68
2023/01/29 07:18:15;;;;;;;58.22;33.33;;;;;;;;;;5027304;28;20556;-69
2023/01/29 07:20:42;;;;;;;55.95;31.25;;;;;;;;;;5002535;28;20042;-68
2023/01/29 07:23:10;;;;;;;55.22;32.58;;;;;;;;;;5031165;28;20049;-68
2023/01/29 07:25:36;;;;;;;60.97;34.60;;;;;;;;;;5008982;28;20092;-68
2023/01/29 07:28:02;;;;;;;60.58;34.55;;;;;;;;;;5029101;28;20045;-68
2023/01/29 07:30:29;;;;;;;60.22;33.75;;;;;;;;;;5034943;28;20060;-68
2023/01/29 07:32:55;;;;;;;61.75;35.28;;;;;;;;;;5015549;28;20053;-67
2023/01/29 07:35:21;;;;;;;64.13;35.40;;;;;;;;;;5017881;28;20041;-68
2023/01/29 07:37:49;;;;;;;72.30;37.53;;;;;;;;;;5037493;28;20033;-68
2023/01/29 07:40:15;;;;;;;76.72;38.47;;;;;;;;;;5015233;28;20090;-69
2023/01/29 07:42:42;;;;;;;78.68;40.28;;;;;;;;;;5036052;28;20040;-69
2023/01/29 07:45:09;;;;;;;83.20;40.65;;;;;;;;;;5048644;28;20052;-68
2023/01/29 07:47:36;;;;;;;87.65;41.40;;;;;;;;;;5058558;28;20049;-68
2023/01/29 07:50:03;;;;;;;98.47;43.60;;;;;;;;;;5058991;28;20053;-69
2023/01/29 07:52:29;;;;;;;97.60;43.00;;;;;;;;;;5052456;28;20041;-69
2023/01/29 07:54:56;;;;;;;88.57;41.50;;;;;;;;;;5051997;28;20051;-68
2023/01/29 07:57:22;;;;;;;89.30;42.47;;;;;;;;;;5055596;28;20056;-69
2023/01/29 07:59:48;;;;;;;95.80;45.72;;;;;;;;;;5051355;28;20120;-68
2023/01/29 08:02:14;;;;;;;92.82;45.13;;;;;;;;;;5051101;28;20110;-69
2023/01/29 08:04:40;;;;;;;86.75;42.10;;;;;;;;;;5050934;28;20036;-69
2023/01/29 08:07:08;;;;;;;95.68;43.55;;;;;;;;;;5057766;28;20049;-68
2023/01/29 08:09:34;;;;;;;93.13;44.72;;;;;;;;;;5053153;28;20048;-68
2023/01/29 08:12:00;;;;;;;99.72;47.08;;;;;;;;;;5054869;28;20083;-69
2023/01/29 08:14:27;;;;;;;102.78;47.17;;;;;;;;;;5045846;28;20155;-68
2023/01/29 08:16:53;;;;;;;97.10;45.80;;;;;;;;;;5045336;28;20516;-69
2023/01/29 08:19:19;;;;;;;99.00;45.90;;;;;;;;;;5054063;28;20120;-69
2023/01/29 08:21:45;;;;;;;93.43;43.72;;;;;;;;;;5047848;28;20566;-69
2023/01/29 08:24:11;;;;;;;93.30;45.53;;;;;;;;;;5051832;28;20437;-68
2023/01/29 08:26:37;;;;;;;96.45;45.15;;;;;;;;;;5042272;28;22005;-68
2023/01/29 08:29:04;;;;;;;92.43;44.67;;;;;;;;;;5052970;28;20040;-68
2023/01/29 08:31:30;;;;;;;100.97;46.80;;;;;;;;;;5052440;28;20053;-68
2023/01/29 08:33:57;;;;;;;92.45;45.45;;;;;;;;;;5044905;28;20400;-69
2023/01/29 08:36:23;;;;;;;100.28;46.42;;;;;;;;;;5053092;28;20045;-68
2023/01/29 08:38:50;;;;;;;96.80;46.28;;;;;;;;;;5052130;28;20064;-68
2023/01/29 08:41:16;;;;;;;95.05;44.60;;;;;;;;;;5044593;28;20127;-69
2023/01/29 08:43:42;;;;;;;93.32;44.00;;;;;;;;;;5051064;28;20048;-69
2023/01/29 08:46:08;;;;;;;92.45;45.05;;;;;;;;;;5051706;28;20055;-69
2023/01/29 08:48:35;;;;;;;88.70;44.08;;;;;;;;;;5049557;28;20057;-69
2023/01/29 08:51:01;;;;;;;87.80;42.53;;;;;;;;;;5047525;28;20115;-68
2023/01/29 08:53:28;;;;;;;98.10;44.55;;;;;;;;;;5054571;28;20044;-68
2023/01/29 08:55:54;;;;;;;94.00;45.17;;;;;;;;;;5050354;28;20473;-69
2023/01/29 08:58:20;;;;;;;85.63;41.83;;;;;;;;;;5045902;28;20482;-69
2023/01/29 09:00:46;;;;;;;91.18;43.22;;;;;;;;;;5044103;28;20484;-80
2023/01/29 09:03:12;;;;;;;96.32;44.55;;;;;;;;;;5044484;28;20056;-69
2023/01/29 09:05:40;;;;;;;92.03;44.05;;;;;;;;;;5037945;28;20368;-70
2023/01/29 09:08:07;;;;;;;91.30;43.92;;;;;;;;;;5034932;28;20055;-70
2023/01/29 09:10:33;;;;;;;87.88;42.47;;;;;;;;;;5040317;28;20148;-70
2023/01/29 09:12:59;;;;;;;80.13;40.42;;;;;;;;;;5044863;28;20048;-71
2023/01/29 09:15:26;;;;;;;83.43;41.42;;;;;;;;;;5044424;28;20437;-69
2023/01/29 09:17:52;;;;;;;84.40;43.10;;;;;;;;;;5043533;28;20052;-70
2023/01/29 09:20:18;;;;;;;91.18;43.65;;;;;;;;;;5049300;28;20108;-68
2023/01/29 09:22:45;;;;;;;88.65;43.28;;;;;;;;;;5046042;28;20044;-70
2023/01/29 09:25:12;;;;;;;88.68;41.28;;;;;;;;;;5045859;28;20523;-70
2023/01/29 09:27:38;;;;;;;79.97;38.92;;;;;;;;;;5043296;28;20423;-69
2023/01/29 09:30:05;;;;;;;82.60;40.63;;;;;;;;;;5047649;28;20047;-70
2023/01/29 09:32:31;;;;;;;86.80;41.88;;;;;;;;;;5049476;28;20036;-70
2023/01/29 09:34:58;;;;;;;89.85;42.63;;;;;;;;;;5049774;28;20607;-70
2023/01/29 09:37:25;;;;;;;84.35;42.67;;;;;;;;;;5051710;28;20041;-71
2023/01/29 09:39:51;;;;;;;94.20;43.17;;;;;;;;;;5051851;28;20135;-70
2023/01/29 09:42:22;;;;;;;78.45;39.00;;;;;;;;;;5048747;28;20032;-70
2023/01/29 09:45:00;;;;;;;81.78;39.85;;;;;;;;;;5049947;28;20048;-70
2023/01/29 09:47:27;;;;;;;84.60;39.58;;;;;;;;;;5052481;28;20044;-70
2023/01/29 09:50:00;;;;;;;76.70;38.20;;;;;;;;;;5046090;28;20048;-70
2023/01/29 09:52:28;;;;;;;80.23;33.60;;;;;;;;;;5048984;28;20040;-70
2023/01/29 09:54:55;;;;;;;81.13;39.80;;;;;;;;;;5052021;28;20378;-70
2023/01/29 09:57:25;;;;;;;79.53;37.92;;;;;;;;;;5048421;28;20420;-70
2023/01/29 09:59:51;;;;;;;92.03;41.28;;;;;;;;;;5049077;28;20079;-70
2023/01/29 10:02:29;;;;;;;90.38;41.08;;;;;;;;;;5046982;28;20041;-70
2023/01/29 10:05:08;;;;;;;85.97;40.83;;;;;;;;;;5045073;28;20052;-69
2023/01/29 10:07:44;;;;;;;92.82;40.50;;;;;;;;;;5042607;28;20102;-70
2023/01/29 10:10:15;;;;;;;88.45;39.78;;;;;;;;;;5043104;28;20029;-70
2023/01/29 10:12:44;;;;;;;81.75;38.63;;;;;;;;;;5041166;28;20078;-72
2023/01/29 10:15:22;;;;;;;85.97;40.08;;;;;;;;;;5045824;28;20032;-71
2023/01/29 10:18:14;;;;;;;83.90;39.17;;;;;;;;;;5045059;28;20045;-69
2023/01/29 10:20:49;;;;;;;87.78;41.88;;;;;;;;;;5047602;28;20049;-71
2023/01/29 10:23:18;;;;;;;86.60;37.15;;;;;;;;;;5046995;28;20540;-70
2023/01/29 10:25:45;;;;;;;88.38;39.45;;;;;;;;;;5043796;28;20045;-71
2023/01/29 10:28:16;;;;;;;92.35;40.78;;;;;;;;;;5042497;28;20065;-71
2023/01/29 10:30:46;;;;;;;92.95;38.30;;;;;;;;;;5040057;28;20048;-71
2023/01/29 10:33:16;;;;;;;83.97;38.10;;;;;;;;;;5045918;28;20052;-71
2023/01/29 10:35:44;;;;;;;84.38;38.50;;;;;;;;;;5043743;28;20040;-71
2023/01/29 10:38:16;;;;;;;85.25;38.70;;;;;;;;;;5043123;28;20037;-71
2023/01/29 10:40:46;;;;;;;86.07;39.30;;;;;;;;;;5038152;28;20048;-69
2023/01/29 10:43:17;;;;;;;92.90;39.47;;;;;;;;;;5046286;28;20144;-69
2023/01/29 10:45:54;;;;;;;90.72;39.50;;;;;;;;;;5046303;28;20052;-69
2023/01/29 10:48:33;;;;;;;82.32;39.33;;;;;;;;;;5045097;28;20053;-70
2023/01/29 10:51:02;;;;;;;86.75;39.05;;;;;;;;;;5046704;28;20032;-70
2023/01/29 10:53:33;;;;;;;85.28;38.45;;;;;;;;;;5042845;28;20048;-70
2023/01/29 10:56:07;;;;;;;73.82;36.08;;;;;;;;;;5041477;28;20060;-68
2023/01/29 10:58:45;;;;;;;78.07;36.13;;;;;;;;;;5043088;28;20063;-69
2023/01/29 11:01:12;;;;;;;86.68;36.88;;;;;;;;;;5043933;28;20047;-71
2023/01/29 11:03:38;;;;;;;87.90;37.40;;;;;;;;;;5043508;28;20144;-70
2023/01/29 11:06:08;;;;;;;87.15;37.28;;;;;;;;;;5045735;28;20064;-70
2023/01/29 11:08:39;;;;;;;81.10;35.97;;;;;;;;;;5043579;28;20124;-70
2023/01/29 11:11:08;;;;;;;74.10;33.33;;;;;;;;;;5047550;28;20112;-69
2023/01/29 11:13:38;;;;;;;75.18;32.47;;;;;;;;;;5049912;28;20125;-69
2023/01/29 11:16:05;;;;;;;72.22;31.38;;;;;;;;;;5042045;28;20041;-68
2023/01/29 11:18:48;;;;;;;71.57;30.48;;;;;;;;;;5042076;28;20044;-70
2023/01/29 11:21:14;;;;;;;70.60;30.95;;;;;;;;;;5044135;28;20209;-70
2023/01/29 11:23:41;;;;;;;70.72;30.50;;;;;;;;;;5049373;28;20044;-70
2023/01/29 11:26:09;;;;;;;64.28;31.33;;;;;;;;;;5048130;28;20071;-70
2023/01/29 11:28:37;;;;;;;63.47;30.30;;;;;;;;;;5043214;28;20060;-69
2023/01/29 11:31:03;;;;;;;71.20;30.10;;;;;;;;;;5048461;28;20029;-69
2023/01/29 11:33:29;;;;;;;59.67;27.20;;;;;;;;;;5041880;28;20059;-70
2023/01/29 11:35:57;;;;;;;58.78;26.08;;;;;;;;;;5045317;28;20045;-70
2023/01/29 11:38:28;;;;;;;61.85;28.33;;;;;;;;;;5048290;28;20045;-70
2023/01/29 11:41:05;;;;;;;60.25;29.45;;;;;;;;;;5050752;28;20045;-69
2023/01/29 11:43:31;;;;;;;53.92;25.90;;;;;;;;;;5033237;28;20084;-70
2023/01/29 11:46:00;;;;;;;65.13;29.73;;;;;;;;;;5039640;28;20449;-70
2023/01/29 11:48:32;;;;;;;65.80;28.35;;;;;;;;;;5038497;28;20052;-70
2023/01/29 11:51:00;;;;;;;67.55;29.40;;;;;;;;;;5043642;28;20097;-70
2023/01/29 11:53:36;;;;;;;59.17;26.65;;;;;;;;;;5040992;28;20080;-69
2023/01/29 11:56:05;;;;;;;61.83;27.83;;;;;;;;;;5042570;28;20043;-72
2023/01/29 11:58:32;;;;;;;65.78;28.30;;;;;;;;;;5045246;28;20036;-68
2023/01/29 12:01:00;;;;;;;62.95;28.13;;;;;;;;;;5038303;28;20094;-71
2023/01/29 12:03:32;;;;;;;65.45;28.08;;;;;;;;;;5041913;28;20056;-71
2023/01/29 12:06:00;;;;;;;60.40;27.55;;;;;;;;;;5041423;28;20051;-70
2023/01/29 12:08:31;;;;;;;64.97;26.58;;;;;;;;;;5057141;28;21443;-71
2023/01/29 12:11:09;;;;;;;58.58;24.45;;;;;;;;;;5045595;28;21246;-71
2023/01/29 12:13:35;;;;;;;62.08;26.48;;;;;;;;;;5043732;28;20155;-71
2023/01/29 12:16:10;;;;;;;55.25;26.25;;;;;;;;;;5043115;28;20465;-71
2023/01/29 12:18:40;;;;;;;72.97;30.15;;;;;;;;;;5045226;28;20220;-71
2023/01/29 12:21:13;;;;;;;76.53;31.50;;;;;;;;;;5056945;28;20056;-71
2023/01/29 12:23:53;;;;;;;87.50;32.42;;;;;;;;;;5052776;28;20449;-71
2023/01/29 12:26:38;;;;;;;94.55;35.10;;;;;;;;;;5040235;28;20049;-71
2023/01/29 12:29:15;;;;;;;85.65;33.22;;;;;;;;;;5046583;28;20508;-71
2023/01/29 12:31:46;;;;;;;95.68;36.47;;;;;;;;;;5042629;28;20041;-71
2023/01/29 12:34:13;;;;;;;98.68;34.15;;;;;;;;;;5045002;28;20052;-71
2023/01/29 12:36:52;;;;;;;77.28;30.30;;;;;;;;;;5036679;28;20045;-71
2023/01/29 12:39:18;;;;;;;75.45;29.48;;;;;;;;;;5042262;28;20413;-70
2023/01/29 12:41:47;;;;;;;70.25;28.40;;;;;;;;;;5041224;28;20040;-71
2023/01/29 12:44:20;;;;;;;65.95;23.98;;;;;;;;;;5042595;28;20513;-71
2023/01/29 12:46:51;;;;;;;48.38;18.35;;;;;;;;;;5042836;28;20171;-70
2023/01/29 12:49:21;;;;;;;37.28;16.00;;;;;;;;;;5050739;28;20518;-70
2023/01/29 12:51:53;;;;;;;41.08;16.52;;;;;;;;;;5047626;28;20477;-70
2023/01/29 12:54:21;;;;;;;47.35;15.13;;;;;;;;;;5044174;28;20056;-70
2023/01/29 12:56:49;;;;;;;42.03;14.88;;;;;;;;;;5040160;28;20048;-70
2023/01/29 12:59:22;;;;;;;45.83;14.52;;;;;;;;;;5048367;28;20048;-70
2023/01/29 13:01:52;;;;;;;38.33;14.48;;;;;;;;;;5041748;28;20392;-70
2023/01/29 13:04:38;;;;;;;43.60;15.15;;;;;;;;;;5042629;28;20189;-70
2023/01/29 13:07:10;;;;;;;43.53;14.82;;;;;;;;;;5054999;28;20072;-70
2023/01/29 13:09:37;;;;;;;38.10;13.70;;;;;;;;;;5040366;28;20144;-70
2023/01/29 13:12:06;;;;;;;39.55;15.20;;;;;;;;;;5041488;28;20412;-70
2023/01/29 13:14:32;;;;;;;31.15;11.55;;;;;;;;;;5045981;28;20037;-70
2023/01/29 13:17:07;;;;;;;28.65;11.48;;;;;;;;;;5044062;28;20052;-70
2023/01/29 13:19:37;;;;;;;47.50;18.17;;;;;;;;;;5042448;28;20389;-70
2023/01/29 13:22:10;;;;;;;83.80;38.90;;;;;;;;;;5041791;28;20052;-70
2023/01/29 13:24:39;;;;;;;80.35;38.38;;;;;;;;;;5052252;28;20134;-70
2023/01/29 13:27:06;;;;;;;72.03;36.08;;;;;;;;;;5040980;28;20092;-70
2023/01/29 13:29:32;;;;;;;64.82;33.85;;;;;;;;;;5040519;28;20206;-70
2023/01/29 13:32:00;;;;;;;74.93;34.10;;;;;;;;;;5049365;28;20060;-70
2023/01/29 13:34:27;;;;;;;63.13;31.55;;;;;;;;;;5049563;28;20044;-70
2023/01/29 13:36:55;;;;;;;76.15;33.45;;;;;;;;;;5047508;28;20107;-70
2023/01/29 13:39:25;;;;;;;69.47;32.70;;;;;;;;;;5043494;28;20078;-70
2023/01/29 13:41:51;;;;;;;64.35;31.58;;;;;;;;;;5045494;28;20103;-70
2023/01/29 13:44:20;;;;;;;76.53;32.78;;;;;;;;;;5039111;28;20052;-70
2023/01/29 13:46:48;;;;;;;88.97;33.97;;;;;;;;;;5041290;28;20060;-69
2023/01/29 13:49:24;;;;;;;81.35;34.22;;;;;;;;;;5046073;28;20044;-69
2023/01/29 13:51:50;;;;;;;90.18;37.97;;;;;;;;;;5043179;28;20044;-69
2023/01/29 13:54:20;;;;;;;92.38;38.47;;;;;;;;;;5041498;28;20037;-69
2023/01/29 13:56:58;;;;;;;91.78;36.53;;;;;;;;;;5046907;28;20255;-69
2023/01/29 13:59:44;;;;;;;98.80;36.45;;;;;;;;;;5045540;28;20047;-71
2023/01/29 14:02:26;;;;;;;95.38;37.42;;;;;;;;;;5037224;28;20045;-70
2023/01/29 14:05:12;;;;;;;86.78;35.72;;;;;;;;;;5050372;28;20515;-68
2023/01/29 14:07:48;;;;;;;85.80;33.88;;;;;;;;;;5059269;28;20048;-68
2023/01/29 14:10:18;;;;;;;81.57;34.40;;;;;;;;;;5038274;28;20076;-70
2023/01/29 14:12:45;;;;;;;84.70;34.83;;;;;;;;;;5043659;28;20112;-70
2023/01/29 14:15:16;;;;;;;100.90;37.90;;;;;;;;;;5056360;28;20080;-69
2023/01/29 14:18:00;;;;;;;101.72;39.42;;;;;;;;;;5055185;28;20044;-70
2023/01/29 14:20:32;;;;;;;98.80;38.63;;;;;;;;;;5051796;28;20037;-69
2023/01/29 14:23:00;;;;;;;108.95;40.97;;;;;;;;;;5052232;28;20044;-69
2023/01/29 14:25:29;;;;;;;110.60;41.20;;;;;;;;;;5062175;28;20036;-69
2023/01/29 14:27:56;;;;;;;110.95;40.72;;;;;;;;;;5063503;28;20045;-69
2023/01/29 14:30:23;;;;;;;121.15;41.33;;;;;;;;;;5061703;28;20185;-69
2023/01/29 14:32:50;;;;;;;111.60;41.10;;;;;;;;;;5055028;28;21557;-69
2023/01/29 14:35:19;;;;;;;102.40;39.90;;;;;;;;;;5060807;28;20037;-68
2023/01/29 14:37:50;;;;;;;112.88;40.15;;;;;;;;;;5046521;28;20041;-69
2023/01/29 14:40:18;;;;;;;103.53;40.03;;;;;;;;;;5038495;28;20057;-70
2023/01/29 14:42:53;;;;;;;101.55;37.75;;;;;;;;;;5048129;28;20153;-70
2023/01/29 14:45:22;;;;;;;114.18;39.83;;;;;;;;;;5043415;28;20435;-71
2023/01/29 14:47:48;;;;;;;90.40;35.63;;;;;;;;;;5039157;28;20482;-72
2023/01/29 14:50:30;;;;;;;90.25;35.72;;;;;;;;;;5021344;28;20489;-71
2023/01/29 14:52:59;;;;;;;97.13;38.13;;;;;;;;;;5052916;28;20095;-71
2023/01/29 14:55:30;;;;;;;76.82;32.58;;;;;;;;;;5033728;28;20137;-71